createdAt,value
2023-05-14T00:01:28.124Z,39.60
2023-05-14T00:03:29.847Z,50.50
2023-05-14T00:05:31.619Z,51.42
2023-05-14T00:07:33.174Z,55.47
2023-05-14T00:09:35.583Z,61.40
2023-05-14T00:11:37.315Z,57.05
2023-05-14T00:13:38.835Z,61.17
2023-05-14T00:15:40.366Z,60.38
2023-05-14T00:17:42.530Z,61.13
2023-05-14T00:19:44.513Z,50.67
2023-05-14T00:21:47.183Z,65.50
2023-05-14T00:23:48.688Z,67.55
2023-05-14T00:25:50.529Z,65.38
2023-05-14T00:27:52.035Z,65.93
2023-05-14T00:29:53.571Z,69.38
2023-05-14T00:31:55.360Z,67.30
2023-05-14T00:33:56.853Z,68.10
2023-05-14T00:35:58.411Z,59.20
2023-05-14T00:37:59.917Z,65.35
2023-05-14T00:40:01.600Z,58.80
2023-05-14T00:42:03.294Z,58.25
2023-05-14T00:44:05.368Z,57.10
2023-05-14T00:46:07.153Z,56.10
2023-05-14T00:48:08.689Z,55.17
2023-05-14T00:50:11.998Z,49.63
2023-05-14T00:52:14.626Z,51.30
2023-05-14T00:54:17.195Z,44.05
2023-05-14T00:56:19.313Z,44.08
2023-05-14T00:58:22.110Z,46.38
2023-05-14T01:00:23.853Z,37.70
2023-05-14T01:02:25.827Z,39.42
2023-05-14T01:04:27.697Z,31.58
2023-05-14T01:06:54.555Z,32.15
2023-05-14T01:09:11.549Z,29.13
2023-05-14T01:11:20.064Z,27.50
2023-05-14T01:13:37.818Z,48.42
2023-05-14T01:15:40.192Z,28.02
2023-05-14T01:17:46.287Z,29.88
2023-05-14T01:19:48.692Z,27.17
2023-05-14T01:21:50.374Z,29.05
2023-05-14T01:23:51.880Z,34.03
2023-05-14T01:25:53.426Z,37.25
2023-05-14T01:28:29.686Z,47.05
2023-05-14T01:30:35.861Z,42.15
2023-05-14T01:32:39.693Z,35.85
2023-05-14T01:34:42.050Z,35.20
2023-05-14T01:36:44.293Z,32.47
2023-05-14T01:38:48.138Z,40.65
2023-05-14T01:40:50.741Z,46.72
2023-05-14T01:42:53.326Z,48.05
2023-05-14T01:44:55.604Z,58.67
2023-05-14T01:46:57.147Z,55.90
2023-05-14T01:48:58.775Z,55.10
2023-05-14T01:51:00.339Z,53.55
2023-05-14T01:53:02.048Z,59.90
2023-05-14T01:55:05.164Z,50.70
2023-05-14T01:57:06.688Z,69.85
2023-05-14T01:59:08.277Z,64.63
2023-05-14T02:01:09.792Z,62.33
2023-05-14T02:03:11.426Z,60.67
2023-05-14T02:05:13.592Z,53.80
2023-05-14T02:07:15.112Z,44.72
2023-05-14T02:09:16.752Z,43.92
2023-05-14T02:11:18.352Z,37.50
2023-05-14T02:13:19.889Z,37.85
2023-05-14T02:15:21.401Z,38.15
2023-05-14T02:17:23.020Z,34.58
2023-05-14T02:19:24.569Z,34.88
2023-05-14T02:21:26.173Z,34.58
2023-05-14T02:23:37.649Z,39.78
2023-05-14T02:25:42.391Z,40.13
2023-05-14T02:27:44.015Z,33.55
2023-05-14T02:29:46.083Z,36.15
2023-05-14T02:31:47.616Z,39.28
2023-05-14T02:33:49.277Z,38.00
2023-05-14T02:35:50.951Z,44.72
2023-05-14T02:37:52.475Z,39.92
2023-05-14T02:39:53.998Z,31.52
2023-05-14T02:41:55.554Z,26.00
2023-05-14T02:43:57.103Z,31.00
2023-05-14T02:45:58.640Z,36.35
2023-05-14T02:48:00.281Z,33.53
2023-05-14T02:50:01.888Z,33.92
2023-05-14T02:52:03.588Z,38.35
2023-05-14T02:54:05.392Z,35.33
2023-05-14T02:56:08.075Z,35.08
2023-05-14T02:58:10.408Z,35.13
2023-05-14T03:00:12.416Z,31.83
2023-05-14T03:02:14.441Z,33.67
2023-05-14T03:04:16.487Z,35.75
2023-05-14T03:06:17.996Z,32.00
2023-05-14T03:08:19.470Z,30.85
2023-05-14T03:10:21.372Z,37.33
2023-05-14T03:12:23.236Z,34.85
2023-05-14T03:14:24.738Z,32.17
2023-05-14T03:16:27.026Z,33.03
2023-05-14T03:18:30.641Z,30.00
2023-05-14T03:20:32.394Z,32.42
2023-05-14T03:22:34.042Z,33.88
2023-05-14T03:24:35.656Z,33.35
2023-05-14T03:26:37.567Z,32.85
2023-05-14T03:28:40.887Z,33.20
2023-05-14T03:30:42.526Z,27.67
2023-05-14T03:32:44.610Z,34.65
2023-05-14T03:34:46.190Z,36.95
2023-05-14T03:36:47.816Z,33.08
2023-05-14T03:38:49.332Z,31.67
2023-05-14T03:40:50.873Z,32.63
2023-05-14T03:42:52.466Z,30.05
2023-05-14T03:44:54.104Z,26.10
2023-05-14T03:46:56.047Z,26.70
2023-05-14T03:48:57.644Z,24.38
2023-05-14T03:50:59.331Z,23.95
2023-05-14T03:53:01.117Z,25.40
2023-05-14T03:55:02.843Z,24.98
2023-05-14T03:57:04.921Z,28.95
2023-05-14T03:59:06.789Z,26.10
2023-05-14T04:01:08.313Z,23.02
2023-05-14T04:03:09.983Z,24.55
2023-05-14T04:05:11.738Z,21.98
2023-05-14T04:07:13.342Z,26.77
2023-05-14T04:09:15.101Z,24.23
2023-05-14T04:11:16.597Z,24.35
2023-05-14T04:13:18.122Z,26.08
2023-05-14T04:15:19.643Z,41.58
2023-05-14T04:17:21.141Z,70.35
2023-05-14T04:19:22.650Z,45.38
2023-05-14T04:21:24.330Z,25.30
2023-05-14T04:23:25.903Z,20.95
2023-05-14T04:25:27.509Z,30.73
2023-05-14T04:27:29.135Z,41.85
2023-05-14T04:29:30.977Z,37.20
2023-05-14T04:31:32.483Z,29.92
2023-05-14T04:33:34.002Z,23.95
2023-05-14T04:35:35.528Z,20.35
2023-05-14T04:37:37.224Z,17.77
2023-05-14T04:39:38.903Z,22.17
2023-05-14T04:41:40.833Z,15.80
2023-05-14T04:43:42.342Z,15.63
2023-05-14T04:45:43.937Z,19.60
2023-05-14T04:47:46.853Z,21.50
2023-05-14T04:49:48.530Z,17.27
2023-05-14T04:51:50.069Z,19.00
2023-05-14T04:53:51.751Z,19.20
2023-05-14T04:55:54.147Z,22.23
2023-05-14T04:57:56.230Z,20.20
2023-05-14T04:59:57.955Z,21.45
2023-05-14T05:01:59.526Z,21.42
2023-05-14T05:04:01.037Z,24.35
2023-05-14T05:06:02.635Z,19.83
2023-05-14T05:08:04.607Z,17.02
2023-05-14T05:10:06.929Z,17.80
2023-05-14T05:12:08.854Z,14.95
2023-05-14T05:14:10.347Z,14.38
2023-05-14T05:16:11.942Z,11.80
2023-05-14T05:18:13.490Z,15.00
2023-05-14T05:20:15.155Z,17.35
2023-05-14T05:22:17.013Z,17.50
2023-05-14T05:24:18.582Z,14.52
2023-05-14T05:26:20.124Z,16.90
2023-05-14T05:28:21.746Z,16.23
2023-05-14T05:30:23.504Z,14.82
2023-05-14T05:32:25.468Z,14.45
2023-05-14T05:34:27.506Z,10.90
2023-05-14T05:36:28.998Z,14.32
2023-05-14T05:38:30.555Z,11.43
2023-05-14T05:40:32.124Z,11.23
2023-05-14T05:42:33.630Z,9.25
2023-05-14T05:44:35.572Z,10.00
2023-05-14T05:46:37.650Z,9.00
2023-05-14T05:48:39.294Z,10.73
2023-05-14T05:50:41.092Z,10.25
2023-05-14T05:52:42.716Z,6.95
2023-05-14T05:54:44.268Z,5.22
2023-05-14T05:56:45.841Z,6.05
2023-05-14T05:58:47.435Z,9.25
2023-05-14T06:00:49.005Z,5.35
2023-05-14T06:02:50.611Z,6.72
2023-05-14T06:04:53.220Z,7.15
2023-05-14T06:06:54.809Z,5.57
2023-05-14T06:08:56.324Z,6.13
2023-05-14T06:10:57.841Z,4.40
2023-05-14T06:12:59.397Z,7.03
2023-05-14T06:15:00.920Z,4.95
2023-05-14T06:17:02.556Z,5.57
2023-05-14T06:19:04.352Z,6.13
2023-05-14T06:21:05.960Z,5.47
2023-05-14T06:23:07.987Z,5.03
2023-05-14T06:25:10.139Z,6.85
2023-05-14T06:27:11.696Z,6.50
2023-05-14T06:29:13.202Z,6.18
2023-05-14T06:31:14.851Z,4.97
2023-05-14T06:33:17.016Z,4.53
2023-05-14T06:35:19.931Z,4.38
2023-05-14T06:37:21.476Z,4.53
2023-05-14T06:39:24.267Z,3.85
2023-05-14T06:41:26.246Z,4.28
2023-05-14T06:43:28.365Z,3.22
2023-05-14T06:45:31.221Z,3.80
2023-05-14T06:47:34.666Z,3.90
2023-05-14T06:49:36.734Z,2.90
2023-05-14T06:51:39.190Z,2.97
2023-05-14T06:53:40.979Z,3.17
2023-05-14T06:55:42.607Z,3.95
2023-05-14T06:57:45.036Z,2.58
2023-05-14T06:59:46.659Z,3.83
2023-05-14T07:01:48.593Z,7.25
2023-05-14T07:03:50.169Z,6.40
2023-05-14T07:05:51.983Z,2.70
2023-05-14T07:07:53.551Z,3.00
2023-05-14T07:09:55.068Z,3.17
2023-05-14T07:11:56.747Z,4.57
2023-05-14T07:13:58.304Z,4.75
2023-05-14T07:15:59.858Z,4.63
2023-05-14T07:18:01.518Z,5.25
2023-05-14T07:20:03.525Z,3.50
2023-05-14T07:22:05.377Z,7.22
2023-05-14T07:24:07.195Z,4.15
2023-05-14T07:26:08.799Z,4.80
2023-05-14T07:28:10.443Z,3.45
2023-05-14T07:30:12.109Z,2.88
2023-05-14T07:32:15.611Z,6.00
2023-05-14T07:34:18.522Z,4.60
2023-05-14T07:36:20.156Z,5.60
2023-05-14T07:38:21.919Z,4.70
2023-05-14T07:40:25.354Z,2.97
2023-05-14T07:42:35.759Z,2.97
2023-05-14T07:44:38.980Z,4.15
2023-05-14T07:46:41.035Z,3.95
2023-05-14T07:48:42.623Z,4.88
2023-05-14T07:50:44.539Z,5.85
2023-05-14T07:52:46.071Z,3.45
2023-05-14T07:54:48.862Z,3.60
2023-05-14T07:56:52.063Z,4.13
2023-05-14T07:58:53.675Z,4.95
2023-05-14T08:00:56.527Z,3.55
2023-05-14T08:02:58.384Z,2.63
2023-05-14T08:05:00.197Z,3.53
2023-05-14T08:07:01.909Z,5.82
2023-05-14T08:09:05.494Z,4.78
2023-05-14T08:11:07.119Z,4.60
2023-05-14T08:13:08.634Z,4.88
2023-05-14T08:15:10.625Z,6.90
2023-05-14T08:17:12.258Z,5.22
2023-05-14T08:19:14.195Z,4.50
2023-05-14T08:21:16.111Z,3.05
2023-05-14T08:23:17.743Z,3.30
2023-05-14T08:25:19.424Z,3.35
2023-05-14T08:27:21.600Z,2.85
2023-05-14T08:29:23.272Z,3.22
2023-05-14T08:31:24.970Z,3.28
2023-05-14T08:33:26.653Z,4.63
2023-05-14T08:35:28.176Z,6.32
2023-05-14T08:37:29.886Z,5.32
2023-05-14T08:39:31.428Z,4.15
2023-05-14T08:41:33.239Z,3.22
2023-05-14T08:43:49.798Z,6.18
2023-05-14T08:45:56.270Z,2.55
2023-05-14T08:47:59.315Z,2.65
2023-05-14T08:50:06.501Z,3.88
2023-05-14T08:52:09.859Z,4.03
2023-05-14T08:54:14.694Z,4.47
2023-05-14T08:56:18.275Z,4.47
2023-05-14T08:58:20.800Z,4.40
2023-05-14T09:00:23.215Z,3.80
2023-05-14T09:02:28.538Z,4.00
2023-05-14T09:04:31.257Z,4.70
2023-05-14T09:06:33.268Z,4.70
2023-05-14T09:08:36.445Z,2.67
2023-05-14T09:10:38.337Z,3.08
2023-05-14T09:12:39.912Z,3.10
2023-05-14T09:14:41.665Z,3.97
2023-05-14T09:16:47.693Z,4.47
2023-05-14T09:18:49.529Z,6.53
2023-05-14T09:20:52.459Z,5.00
2023-05-14T09:22:54.563Z,7.18
2023-05-14T09:25:09.365Z,6.82
2023-05-14T09:27:20.658Z,3.38
2023-05-14T09:29:28.478Z,3.67
2023-05-14T09:31:31.811Z,4.30
2023-05-14T09:33:33.557Z,3.15
2023-05-14T09:35:35.206Z,3.72
2023-05-14T09:37:37.172Z,5.72
2023-05-14T09:39:39.234Z,3.67
2023-05-14T09:41:40.885Z,6.82
2023-05-14T09:43:42.719Z,4.60
2023-05-14T09:45:44.410Z,4.35
2023-05-14T09:47:46.260Z,3.30
2023-05-14T09:49:48.925Z,3.63
2023-05-14T09:51:50.847Z,3.95
2023-05-14T09:53:53.358Z,5.30
2023-05-14T09:55:54.928Z,4.30
2023-05-14T09:57:56.432Z,3.83
2023-05-14T09:59:58.056Z,6.78
2023-05-14T10:02:00.380Z,6.50
2023-05-14T10:04:05.795Z,4.25
2023-05-14T10:06:08.737Z,4.82
2023-05-14T10:08:19.752Z,4.47
2023-05-14T10:10:26.385Z,3.83
2023-05-14T10:12:32.614Z,5.20
2023-05-14T10:14:41.228Z,3.78
2023-05-14T10:16:47.780Z,3.33
2023-05-14T10:18:53.861Z,2.72
2023-05-14T10:21:07.722Z,2.95
2023-05-14T10:23:09.644Z,2.20
2023-05-14T10:25:11.777Z,3.22
2023-05-14T10:27:13.727Z,2.58
2023-05-14T10:29:15.391Z,2.38
2023-05-14T10:31:17.431Z,3.03
2023-05-14T10:33:19.091Z,3.78
2023-05-14T10:35:25.345Z,1.70
2023-05-14T10:37:27.598Z,2.50
2023-05-14T10:39:49.748Z,4.80
2023-05-14T10:41:51.420Z,2.83
2023-05-14T10:43:52.980Z,5.40
2023-05-14T10:45:55.290Z,4.30
2023-05-14T10:47:56.846Z,4.38
2023-05-14T10:49:59.956Z,2.13
2023-05-14T10:52:02.047Z,3.67
2023-05-14T10:54:03.671Z,2.33
2023-05-14T10:56:10.824Z,3.40
2023-05-14T10:58:12.667Z,2.40
2023-05-14T11:00:15.063Z,4.60
2023-05-14T11:02:22.629Z,4.40
2023-05-14T11:04:25.086Z,3.20
2023-05-14T11:06:28.350Z,2.47
2023-05-14T11:08:31.302Z,4.18
2023-05-14T11:10:33.899Z,1.92
2023-05-14T11:12:40.671Z,2.03
2023-05-14T11:14:42.750Z,2.45
2023-05-14T11:16:44.397Z,2.28
2023-05-14T11:18:46.117Z,1.73
2023-05-14T11:20:47.803Z,2.00
2023-05-14T11:22:51.754Z,3.22
2023-05-14T11:24:53.641Z,2.33
2023-05-14T11:26:56.392Z,3.45
2023-05-14T11:28:57.998Z,1.77
2023-05-14T11:30:59.802Z,1.83
2023-05-14T11:33:02.135Z,1.92
2023-05-14T11:35:04.985Z,3.83
2023-05-14T11:37:08.302Z,1.70
2023-05-14T11:39:09.941Z,1.95
2023-05-14T11:41:14.339Z,3.85
2023-05-14T11:43:15.914Z,6.15
2023-05-14T11:45:26.563Z,2.05
2023-05-14T11:47:29.568Z,2.95
2023-05-14T11:49:32.378Z,4.22
2023-05-14T11:51:33.928Z,4.50
2023-05-14T11:53:35.669Z,3.85
2023-05-14T11:55:37.381Z,4.93
2023-05-14T11:57:39.081Z,2.05
2023-05-14T11:59:40.722Z,4.57
2023-05-14T12:01:42.564Z,2.58
2023-05-14T12:03:44.220Z,4.28
2023-05-14T12:06:08.259Z,3.33
2023-05-14T12:08:26.021Z,4.50
2023-05-14T12:10:27.701Z,2.10
2023-05-14T12:12:35.245Z,2.08
2023-05-14T12:14:45.368Z,3.05
2023-05-14T12:16:47.715Z,1.90
2023-05-14T12:18:49.568Z,1.60
2023-05-14T12:20:52.005Z,5.18
2023-05-14T12:22:54.125Z,4.75
2023-05-14T12:24:58.438Z,6.72
2023-05-14T12:27:01.783Z,2.80
2023-05-14T12:29:04.314Z,5.75
2023-05-14T12:31:06.222Z,2.95
2023-05-14T12:33:07.913Z,1.85
2023-05-14T12:35:11.109Z,3.35
2023-05-14T12:37:12.669Z,1.30
2023-05-14T12:39:14.277Z,3.80
2023-05-14T12:41:16.114Z,2.72
2023-05-14T12:43:17.648Z,3.10
2023-05-14T12:45:19.513Z,3.97
2023-05-14T12:47:21.173Z,3.63
2023-05-14T12:49:22.912Z,4.75
2023-05-14T12:51:24.503Z,3.70
2023-05-14T12:53:26.272Z,3.22
2023-05-14T12:55:27.977Z,2.78
2023-05-14T12:57:30.391Z,1.83
2023-05-14T12:59:31.916Z,4.80
2023-05-14T13:01:33.640Z,1.45
2023-05-14T13:03:35.307Z,2.55
2023-05-14T13:05:37.882Z,2.05
2023-05-14T13:07:39.690Z,3.03
2023-05-14T13:09:41.248Z,3.47
2023-05-14T13:11:42.801Z,3.72
2023-05-14T13:13:44.309Z,2.03
2023-05-14T13:15:46.870Z,3.25
2023-05-14T13:17:48.851Z,2.10
2023-05-14T13:19:50.337Z,2.83
2023-05-14T13:21:51.877Z,3.55
2023-05-14T13:23:53.408Z,1.60
2023-05-14T13:25:54.915Z,3.83
2023-05-14T13:27:56.545Z,2.20
2023-05-14T13:29:58.386Z,1.92
2023-05-14T13:31:59.928Z,3.80
2023-05-14T13:34:02.562Z,2.10
2023-05-14T13:36:04.877Z,1.63
2023-05-14T13:38:07.814Z,3.80
2023-05-14T13:40:10.314Z,2.95
2023-05-14T13:42:12.044Z,2.35
2023-05-14T13:44:13.528Z,1.52
2023-05-14T13:46:15.197Z,1.42
2023-05-14T13:48:16.907Z,2.42
2023-05-14T13:50:18.587Z,1.95
2023-05-14T13:52:20.133Z,2.83
2023-05-14T13:54:22.248Z,4.82
2023-05-14T13:56:23.887Z,4.22
2023-05-14T13:58:25.735Z,1.58
2023-05-14T14:00:27.583Z,1.73
2023-05-14T14:02:29.231Z,1.50
2023-05-14T14:04:31.098Z,4.30
2023-05-14T14:06:33.375Z,3.65
2023-05-14T14:08:34.940Z,2.10
2023-05-14T14:10:36.684Z,2.42
2023-05-14T14:12:38.369Z,1.58
2023-05-14T14:14:39.950Z,3.03
2023-05-14T14:16:41.625Z,2.70
2023-05-14T14:18:43.498Z,2.80
2023-05-14T14:20:45.386Z,4.47
2023-05-14T14:22:47.096Z,2.03
2023-05-14T14:24:48.611Z,3.13
2023-05-14T14:26:50.184Z,2.13
2023-05-14T14:28:51.714Z,1.80
2023-05-14T14:30:53.336Z,1.50
2023-05-14T14:32:55.005Z,6.75
2023-05-14T14:34:56.541Z,3.13
2023-05-14T14:36:58.057Z,3.70
2023-05-14T14:38:59.632Z,5.18
2023-05-14T14:41:03.215Z,4.50
2023-05-14T14:43:04.767Z,2.13
2023-05-14T14:45:07.332Z,2.55
2023-05-14T14:47:08.910Z,2.10
2023-05-14T14:49:10.465Z,1.48
2023-05-14T14:51:12.162Z,2.85
2023-05-14T14:53:13.808Z,2.47
2023-05-14T14:55:15.504Z,1.52
2023-05-14T14:57:17.106Z,1.33
2023-05-14T14:59:18.624Z,1.63
2023-05-14T15:01:21.297Z,2.13
2023-05-14T15:03:24.269Z,1.52
2023-05-14T15:05:26.326Z,1.92
2023-05-14T15:07:28.042Z,1.50
2023-05-14T15:09:29.737Z,1.90
2023-05-14T15:11:31.332Z,1.67
2023-05-14T15:13:32.860Z,2.28
2023-05-14T15:15:35.328Z,3.70
2023-05-14T15:17:36.848Z,2.35
2023-05-14T15:19:38.500Z,3.25
2023-05-14T15:21:40.050Z,8.35
2023-05-14T15:23:41.603Z,2.45
2023-05-14T15:25:43.251Z,5.97
2023-05-14T15:27:45.029Z,4.68
2023-05-14T15:29:46.740Z,2.95
2023-05-14T15:31:48.417Z,3.03
2023-05-14T15:33:50.581Z,3.40
2023-05-14T15:35:52.552Z,1.60
2023-05-14T15:37:57.196Z,2.65
2023-05-14T15:39:58.821Z,3.05
2023-05-14T15:42:00.326Z,2.53
2023-05-14T15:44:02.787Z,2.13
2023-05-14T15:46:04.353Z,4.05
2023-05-14T15:48:06.313Z,3.40
2023-05-14T15:50:08.627Z,3.50
2023-05-14T15:52:10.189Z,2.13
2023-05-14T15:54:11.726Z,2.20
2023-05-14T15:56:13.499Z,2.42
2023-05-14T15:58:14.972Z,3.90
2023-05-14T16:00:17.616Z,4.47
2023-05-14T16:02:19.188Z,5.78
2023-05-14T16:04:20.825Z,3.17
2023-05-14T16:06:22.371Z,4.03
2023-05-14T16:08:23.962Z,3.80
2023-05-14T16:10:25.935Z,3.22
2023-05-14T16:12:27.818Z,4.75
2023-05-14T16:14:29.317Z,4.90
2023-05-14T16:16:30.964Z,4.10
2023-05-14T16:18:33.591Z,3.35
2023-05-14T16:20:35.218Z,4.03
2023-05-14T16:22:36.749Z,3.45
2023-05-14T16:24:38.283Z,3.67
2023-05-14T16:26:40.400Z,3.33
2023-05-14T16:28:42.823Z,3.10
2023-05-14T16:30:44.412Z,4.47
2023-05-14T16:32:49.475Z,5.88
2023-05-14T16:34:51.237Z,4.70
2023-05-14T16:36:53.010Z,5.07
2023-05-14T16:39:06.791Z,6.38
2023-05-14T16:41:09.909Z,7.93
2023-05-14T16:43:11.770Z,7.32
2023-05-14T16:45:13.424Z,5.63
2023-05-14T16:47:14.939Z,4.55
2023-05-14T16:49:16.895Z,3.97
2023-05-14T16:51:18.482Z,4.43
2023-05-14T16:53:20.021Z,3.25
2023-05-14T16:55:21.829Z,3.60
2023-05-14T16:57:23.506Z,3.90
2023-05-14T16:59:25.332Z,6.00
2023-05-14T17:01:26.941Z,5.70
2023-05-14T17:03:28.463Z,4.57
2023-05-14T17:05:30.027Z,6.40
2023-05-14T17:07:31.666Z,5.15
2023-05-14T17:09:33.240Z,6.53
2023-05-14T17:11:34.725Z,4.00
2023-05-14T17:13:36.369Z,5.93
2023-05-14T17:15:39.169Z,5.40
2023-05-14T17:17:40.798Z,15.00
2023-05-14T17:19:42.584Z,11.00
2023-05-14T17:21:44.145Z,12.65
2023-05-14T17:23:45.669Z,20.73
2023-05-14T17:25:47.303Z,30.02
2023-05-14T17:27:48.914Z,31.25
2023-05-14T17:29:53.315Z,15.57
2023-05-14T17:31:54.956Z,18.50
2023-05-14T17:33:56.569Z,12.68
2023-05-14T17:35:58.942Z,15.30
2023-05-14T17:38:00.727Z,10.23
2023-05-14T17:40:03.517Z,34.33
2023-05-14T17:42:06.289Z,24.80
2023-05-14T17:44:12.830Z,19.52
2023-05-14T17:46:14.861Z,26.20
2023-05-14T17:48:16.417Z,26.55
2023-05-14T17:50:18.627Z,35.03
2023-05-14T17:52:20.228Z,31.88
2023-05-14T17:54:21.881Z,54.17
2023-05-14T17:56:23.487Z,55.17
2023-05-14T17:58:25.073Z,30.45
2023-05-14T18:00:26.595Z,27.13
2023-05-14T18:02:28.167Z,52.80
2023-05-14T18:04:29.695Z,54.22
2023-05-14T18:06:31.253Z,51.00
2023-05-14T18:08:32.761Z,48.03
2023-05-14T18:10:34.290Z,41.40
2023-05-14T18:12:35.947Z,49.03
2023-05-14T18:14:37.529Z,39.83
2023-05-14T18:16:39.212Z,70.40
2023-05-14T18:18:41.094Z,49.72
2023-05-14T18:20:42.812Z,70.65
2023-05-14T18:22:44.336Z,34.78
2023-05-14T18:24:45.843Z,34.90
2023-05-14T18:26:47.410Z,27.17
2023-05-14T18:28:49.067Z,35.38
2023-05-14T18:30:50.801Z,40.22
2023-05-14T18:32:52.533Z,28.23
2023-05-14T18:34:54.064Z,33.28
2023-05-14T18:36:55.703Z,18.00
2023-05-14T18:38:57.295Z,23.65
2023-05-14T18:40:58.921Z,18.73
2023-05-14T18:43:00.569Z,20.85
2023-05-14T18:45:02.310Z,18.58
2023-05-14T18:47:04.129Z,21.15
2023-05-14T18:49:05.694Z,28.83
2023-05-14T18:51:07.671Z,37.08
2023-05-14T18:53:09.446Z,54.80
2023-05-14T18:55:11.092Z,49.20
2023-05-14T18:57:13.645Z,51.33
2023-05-14T18:59:15.319Z,45.78
2023-05-14T19:01:16.863Z,39.30
2023-05-14T19:03:20.200Z,34.35
2023-05-14T19:05:22.268Z,35.13
2023-05-14T19:07:23.951Z,26.63
2023-05-14T19:09:26.891Z,31.25
2023-05-14T19:11:28.590Z,17.00
2023-05-14T19:13:30.339Z,13.05
2023-05-14T19:15:32.472Z,33.75
2023-05-14T19:17:35.262Z,19.55
2023-05-14T19:19:37.805Z,28.92
2023-05-14T19:21:39.361Z,32.78
2023-05-14T19:23:41.391Z,28.17
2023-05-14T19:25:42.993Z,26.95
2023-05-14T19:27:45.545Z,18.05
2023-05-14T19:29:47.069Z,13.60
2023-05-14T19:31:48.814Z,16.48
2023-05-14T19:33:51.095Z,22.80
2023-05-14T19:35:52.802Z,8.88
2023-05-14T19:37:54.414Z,10.45
2023-05-14T19:39:55.923Z,4.80
2023-05-14T19:41:57.564Z,5.53
2023-05-14T19:43:59.076Z,5.95
2023-05-14T19:46:01.593Z,3.88
2023-05-14T19:48:04.701Z,6.72
2023-05-14T19:50:08.444Z,10.35
2023-05-14T19:52:11.379Z,5.90
2023-05-14T19:54:12.901Z,12.07
2023-05-14T19:56:14.608Z,11.68
2023-05-14T19:58:16.145Z,11.07
2023-05-14T20:00:17.823Z,5.13
2023-05-14T20:02:22.001Z,9.90
2023-05-14T20:04:26.063Z,8.45
2023-05-14T20:06:27.666Z,7.65
2023-05-14T20:08:29.193Z,9.90
2023-05-14T20:10:31.222Z,10.35
2023-05-14T20:12:32.738Z,9.23
2023-05-14T20:14:34.229Z,6.97
2023-05-14T20:16:36.899Z,13.18
2023-05-14T20:18:38.484Z,4.75
2023-05-14T20:20:40.088Z,7.22
2023-05-14T20:22:42.866Z,7.72
2023-05-14T20:24:44.674Z,7.10
2023-05-14T20:26:46.401Z,4.22
2023-05-14T20:28:47.942Z,5.70
2023-05-14T20:30:49.466Z,5.90
2023-05-14T20:32:51.326Z,5.05
2023-05-14T20:34:52.863Z,6.28
2023-05-14T20:36:54.378Z,6.78
2023-05-14T20:38:56.337Z,9.75
2023-05-14T20:40:57.900Z,6.32
2023-05-14T20:42:59.477Z,4.88
2023-05-14T20:45:01.006Z,10.32
2023-05-14T20:47:02.559Z,7.60
2023-05-14T20:49:04.104Z,6.80
2023-05-14T20:51:06.509Z,6.05
2023-05-14T20:53:08.125Z,6.82
2023-05-14T20:55:10.046Z,7.30
2023-05-14T20:57:12.420Z,7.90
2023-05-14T20:59:13.958Z,7.88
2023-05-14T21:01:15.686Z,10.00
2023-05-14T21:03:17.427Z,10.77
2023-05-14T21:05:19.210Z,11.10
2023-05-14T21:07:20.773Z,10.23
2023-05-14T21:09:23.757Z,9.18
2023-05-14T21:11:25.861Z,11.88
2023-05-14T21:13:27.423Z,9.90
2023-05-14T21:15:30.642Z,13.27
2023-05-14T21:17:32.471Z,11.40
2023-05-14T21:19:34.002Z,17.00
2023-05-14T21:21:35.518Z,16.67
2023-05-14T21:23:37.101Z,10.05
2023-05-14T21:25:38.655Z,8.25
2023-05-14T21:27:40.210Z,10.25
2023-05-14T21:29:41.915Z,13.70
2023-05-14T21:31:43.482Z,12.35
2023-05-14T21:33:45.058Z,17.58
2023-05-14T21:35:46.615Z,17.52
2023-05-14T21:37:48.154Z,19.20
2023-05-14T21:39:49.686Z,13.48
2023-05-14T21:41:51.388Z,9.45
2023-05-14T21:43:52.917Z,13.77
2023-05-14T21:45:54.482Z,13.35
2023-05-14T21:47:56.190Z,8.48
2023-05-14T21:49:57.749Z,7.85
2023-05-14T21:51:59.271Z,8.27
2023-05-14T21:54:00.765Z,9.38
2023-05-14T21:56:02.257Z,15.88
2023-05-14T21:58:04.080Z,16.33
2023-05-14T22:00:10.548Z,9.77
2023-05-14T22:02:12.321Z,8.98
2023-05-14T22:04:14.149Z,6.97
2023-05-14T22:06:15.836Z,7.95
2023-05-14T22:08:17.707Z,6.75
2023-05-14T22:10:19.316Z,10.15
2023-05-14T22:12:20.884Z,7.45
2023-05-14T22:14:22.393Z,7.50
2023-05-14T22:16:26.391Z,10.55
2023-05-14T22:18:28.042Z,10.23
2023-05-14T22:20:29.628Z,10.90
2023-05-14T22:22:31.158Z,9.65
2023-05-14T22:24:32.721Z,9.25
2023-05-14T22:26:34.925Z,16.20
2023-05-14T22:28:39.816Z,22.30
2023-05-14T22:30:41.516Z,21.27
2023-05-14T22:32:43.190Z,19.33
2023-05-14T22:34:44.751Z,21.58
2023-05-14T22:36:46.289Z,17.67
2023-05-14T22:38:48.189Z,19.70
2023-05-14T22:40:49.738Z,18.23
2023-05-14T22:42:51.271Z,16.83
2023-05-14T22:44:52.755Z,12.75
2023-05-14T22:46:54.421Z,14.27
2023-05-14T22:48:55.985Z,9.98
2023-05-14T22:50:57.552Z,11.13
2023-05-14T22:52:59.051Z,16.35
2023-05-14T22:55:00.745Z,12.15
2023-05-14T22:57:03.417Z,13.45
2023-05-14T22:59:04.982Z,12.32
2023-05-14T23:01:06.499Z,13.15
2023-05-14T23:03:08.079Z,11.65
2023-05-14T23:05:09.916Z,11.05
2023-05-14T23:07:11.467Z,11.70
2023-05-14T23:09:12.969Z,11.18
2023-05-14T23:11:15.117Z,12.00
2023-05-14T23:13:16.824Z,14.38
2023-05-14T23:15:18.429Z,14.10
2023-05-14T23:17:20.071Z,14.90
2023-05-14T23:19:21.990Z,10.20
2023-05-14T23:21:24.064Z,12.00
2023-05-14T23:23:25.771Z,14.68
2023-05-14T23:25:27.447Z,12.60
2023-05-14T23:27:29.101Z,10.95
2023-05-14T23:29:30.731Z,8.98
2023-05-14T23:31:32.301Z,21.88
2023-05-14T23:33:33.909Z,9.75
2023-05-14T23:35:37.795Z,10.70
2023-05-14T23:37:43.021Z,10.70
2023-05-14T23:39:44.628Z,10.05
2023-05-14T23:41:46.266Z,13.75
2023-05-14T23:43:48.927Z,11.52
2023-05-14T23:45:50.692Z,11.52
2023-05-14T23:47:53.547Z,11.68
2023-05-14T23:49:55.119Z,11.45
2023-05-14T23:51:56.883Z,12.75
2023-05-14T23:53:58.729Z,10.18
2023-05-14T23:56:00.489Z,10.43
2023-05-14T23:58:02.014Z,10.13
